createdAt,value
2019-01-15T00:00:16.700Z,18.69
2019-01-15T00:01:16.975Z,18.66
2019-01-15T00:02:16.701Z,18.62
2019-01-15T00:03:16.730Z,18.64
2019-01-15T00:04:16.762Z,18.62
2019-01-15T00:05:16.844Z,18.66
2019-01-15T00:06:16.886Z,18.65
2019-01-15T00:07:17.149Z,18.65
2019-01-15T00:08:16.940Z,18.71
2019-01-15T00:09:16.971Z,18.59
2019-01-15T00:10:16.945Z,18.69
2019-01-15T00:11:17.022Z,18.68
2019-01-15T00:12:17.054Z,18.57
2019-01-15T00:13:17.029Z,18.66
2019-01-15T00:14:17.366Z,18.62
2019-01-15T00:15:17.145Z,18.65
2019-01-15T00:16:17.170Z,18.65
2019-01-15T00:17:17.176Z,18.66
2019-01-15T00:18:17.182Z,18.71
2019-01-15T00:19:17.248Z,18.60
2019-01-15T00:20:17.247Z,18.68
2019-01-15T00:21:17.574Z,18.68
2019-01-15T00:22:17.305Z,18.65
2019-01-15T00:23:17.342Z,18.60
2019-01-15T00:24:17.367Z,18.66
2019-01-15T00:25:17.397Z,18.68
2019-01-15T00:26:17.481Z,18.69
2019-01-15T00:27:17.504Z,18.71
2019-01-15T00:28:17.792Z,18.65
2019-01-15T00:29:17.570Z,18.60
2019-01-15T00:30:17.548Z,18.71
2019-01-15T00:31:17.627Z,18.57
2019-01-15T00:32:17.604Z,18.57
2019-01-15T00:33:17.634Z,18.66
2019-01-15T00:34:17.724Z,18.59
2019-01-15T00:35:17.994Z,18.69
2019-01-15T00:36:17.733Z,18.69
2019-01-15T00:38:17.843Z,18.64
2019-01-15T00:39:17.880Z,18.60
2019-01-15T00:40:17.901Z,18.65
2019-01-15T00:41:17.879Z,18.59
2019-01-15T00:42:18.211Z,18.68
2019-01-15T00:43:17.937Z,18.64
2019-01-15T00:44:17.968Z,18.64
2019-01-15T00:45:18.057Z,18.64
2019-01-15T00:46:18.045Z,18.68
2019-01-15T00:47:18.066Z,18.59
2019-01-15T00:48:18.101Z,18.64
2019-01-15T00:49:18.421Z,18.66
2019-01-15T00:50:18.209Z,18.59
2019-01-15T00:51:18.240Z,18.60
2019-01-15T00:52:18.218Z,18.64
2019-01-15T00:53:18.302Z,18.64
2019-01-15T00:54:18.324Z,18.62
2019-01-15T00:55:18.360Z,18.57
2019-01-15T00:56:18.640Z,18.57
2019-01-15T00:57:18.374Z,18.62
2019-01-15T00:58:18.401Z,18.57
2019-01-15T00:59:18.490Z,18.59
2019-01-15T01:00:18.509Z,18.59
2019-01-15T01:01:18.480Z,18.64
2019-01-15T01:02:18.570Z,18.59
2019-01-15T01:03:18.854Z,18.57
2019-01-15T01:04:18.575Z,18.59
2019-01-15T01:05:18.652Z,18.57
2019-01-15T01:06:18.642Z,18.56
2019-01-15T01:07:18.728Z,18.59
2019-01-15T01:08:18.792Z,18.59
2019-01-15T01:10:19.056Z,18.60
2019-01-15T01:11:18.833Z,18.57
2019-01-15T01:12:22.319Z,18.54
2019-01-15T01:13:18.905Z,18.57
2019-01-15T01:14:18.897Z,18.56
2019-01-15T01:15:18.960Z,18.60
2019-01-15T01:16:18.990Z,18.57
2019-01-15T01:17:19.268Z,18.60
2019-01-15T01:18:19.300Z,18.60
2019-01-15T01:19:19.080Z,18.59
2019-01-15T01:20:19.054Z,18.54
2019-01-15T01:21:19.142Z,18.59
2019-01-15T01:22:19.122Z,18.60
2019-01-15T01:23:19.210Z,18.59
2019-01-15T01:24:19.531Z,18.59
2019-01-15T01:25:19.210Z,18.50
2019-01-15T01:26:19.244Z,18.49
2019-01-15T01:27:19.323Z,18.65
2019-01-15T01:28:19.349Z,18.47
2019-01-15T01:29:19.401Z,18.51
2019-01-15T01:30:19.374Z,18.60
2019-01-15T01:31:19.696Z,18.51
2019-01-15T01:32:19.522Z,18.49
2019-01-15T01:33:19.450Z,18.51
2019-01-15T01:34:19.477Z,18.50
2019-01-15T01:35:19.572Z,18.47
2019-01-15T01:36:19.554Z,18.51
2019-01-15T01:37:19.624Z,18.54
2019-01-15T01:38:19.902Z,18.49
2019-01-15T01:39:19.688Z,18.51
2019-01-15T01:40:19.725Z,18.54
2019-01-15T01:41:19.699Z,18.53
2019-01-15T01:42:19.775Z,18.51
2019-01-15T01:43:19.760Z,18.47
2019-01-15T01:44:19.787Z,18.49
2019-01-15T01:45:20.115Z,18.44
2019-01-15T01:46:19.845Z,18.46
2019-01-15T01:47:20.026Z,18.44
2019-01-15T01:48:19.955Z,18.44
2019-01-15T01:49:19.945Z,18.50
2019-01-15T01:50:19.962Z,18.50
2019-01-15T01:52:20.320Z,18.44
2019-01-15T01:53:20.107Z,18.44
2019-01-15T01:54:20.088Z,18.47
2019-01-15T01:55:20.166Z,18.47
2019-01-15T01:56:20.194Z,18.49
2019-01-15T01:58:20.203Z,18.50
2019-01-15T01:59:20.588Z,18.44
2019-01-15T02:00:20.269Z,18.46
2019-01-15T02:01:20.295Z,18.49
2019-01-15T02:02:20.321Z,18.49
2019-01-15T02:03:20.402Z,18.42
2019-01-15T02:04:20.434Z,18.47
2019-01-15T02:05:20.717Z,18.46
2019-01-15T02:06:20.446Z,18.42
2019-01-15T02:07:20.525Z,18.46
2019-01-15T02:08:20.567Z,18.42
2019-01-15T02:09:20.534Z,18.42
2019-01-15T02:10:20.606Z,18.38
2019-01-15T02:11:20.897Z,18.39
2019-01-15T02:12:20.777Z,18.46
2019-01-15T02:13:20.665Z,18.49
2019-01-15T02:14:20.686Z,18.44
2019-01-15T02:15:20.725Z,18.39
2019-01-15T02:16:20.800Z,18.46
2019-01-15T02:17:21.080Z,18.44
2019-01-15T02:18:20.860Z,18.42
2019-01-15T02:19:20.888Z,18.36
2019-01-15T02:20:20.925Z,18.39
2019-01-15T02:21:20.949Z,18.42
2019-01-15T02:22:20.977Z,18.49
2019-01-15T02:23:21.022Z,18.39
2019-01-15T02:24:21.287Z,18.44
2019-01-15T02:26:21.100Z,18.46
2019-01-15T02:27:21.082Z,18.46
2019-01-15T02:28:21.111Z,18.51
2019-01-15T02:29:21.132Z,18.46
2019-01-15T02:30:21.219Z,18.46
2019-01-15T02:31:21.493Z,18.49
2019-01-15T02:32:21.227Z,18.39
2019-01-15T02:33:21.352Z,18.39
2019-01-15T02:34:21.294Z,18.49
2019-01-15T02:35:21.372Z,18.49
2019-01-15T02:36:21.397Z,18.49
2019-01-15T02:37:21.425Z,18.51
2019-01-15T02:38:21.709Z,18.47
2019-01-15T02:39:21.491Z,18.41
2019-01-15T02:40:21.536Z,18.50
2019-01-15T02:41:21.554Z,18.46
2019-01-15T02:42:21.526Z,18.41
2019-01-15T02:43:21.610Z,18.46
2019-01-15T02:44:21.591Z,18.46
2019-01-15T02:45:21.919Z,18.49
2019-01-15T02:46:21.699Z,18.47
2019-01-15T02:47:21.726Z,18.41
2019-01-15T02:48:21.758Z,18.50
2019-01-15T02:49:21.791Z,18.47
2019-01-15T02:50:21.768Z,18.53
2019-01-15T02:51:21.858Z,18.47
2019-01-15T02:52:22.187Z,18.44
2019-01-15T02:53:21.906Z,18.47
2019-01-15T02:54:21.891Z,18.57
2019-01-15T02:55:21.968Z,18.47
2019-01-15T02:56:22.001Z,18.51
2019-01-15T02:57:22.027Z,18.59
2019-01-15T02:58:22.020Z,18.42
2019-01-15T02:59:22.442Z,18.47
2019-01-15T03:00:22.073Z,18.46
2019-01-15T03:01:22.099Z,18.51
2019-01-15T03:02:22.288Z,18.41
2019-01-15T03:03:22.213Z,18.53
2019-01-15T03:04:22.247Z,18.53
2019-01-15T03:05:22.583Z,18.50
2019-01-15T03:06:22.561Z,18.51
2019-01-15T03:07:22.334Z,18.46
2019-01-15T03:08:22.358Z,18.44
2019-01-15T03:09:22.342Z,18.41
2019-01-15T03:10:22.367Z,18.42
2019-01-15T03:11:22.446Z,18.51
2019-01-15T03:12:22.532Z,18.53
2019-01-15T03:13:22.870Z,18.54
2019-01-15T03:14:22.492Z,18.47
2019-01-15T03:15:22.573Z,18.51
2019-01-15T03:16:22.607Z,18.53
2019-01-15T03:17:22.586Z,18.42
2019-01-15T03:18:22.668Z,18.47
2019-01-15T03:19:22.689Z,18.50
2019-01-15T03:20:22.971Z,18.51
2019-01-15T03:21:22.747Z,18.49
2019-01-15T03:22:22.782Z,18.56
2019-01-15T03:23:22.814Z,18.53
2019-01-15T03:24:22.848Z,18.49
2019-01-15T03:25:22.828Z,18.49
2019-01-15T03:26:22.916Z,18.56
2019-01-15T03:27:23.187Z,18.44
2019-01-15T03:28:22.915Z,18.56
2019-01-15T03:29:22.941Z,18.44
2019-01-15T03:32:23.040Z,18.54
2019-01-15T03:33:23.073Z,18.54
2019-01-15T03:34:23.401Z,18.47
2019-01-15T03:35:23.189Z,18.46
2019-01-15T03:36:23.210Z,18.42
2019-01-15T03:37:23.235Z,18.44
2019-01-15T03:38:23.260Z,18.47
2019-01-15T03:39:23.294Z,18.42
2019-01-15T03:40:23.634Z,18.42
2019-01-15T03:41:23.314Z,18.50
2019-01-15T03:42:23.403Z,18.47
2019-01-15T03:43:23.365Z,18.54
2019-01-15T03:44:23.391Z,18.41
2019-01-15T03:45:23.483Z,18.47
2019-01-15T03:46:23.812Z,18.44
2019-01-15T03:47:23.540Z,18.50
2019-01-15T03:49:23.607Z,18.54
2019-01-15T03:50:23.595Z,18.41
2019-01-15T03:51:23.760Z,18.42
2019-01-15T03:52:23.942Z,18.49
2019-01-15T03:53:23.672Z,18.50
2019-01-15T03:54:23.711Z,18.42
2019-01-15T03:55:23.773Z,18.41
2019-01-15T03:56:23.758Z,18.44
2019-01-15T03:58:23.820Z,18.47
2019-01-15T03:59:24.159Z,18.50
2019-01-15T04:00:23.882Z,18.47
2019-01-15T04:01:23.911Z,18.47
2019-01-15T04:02:23.996Z,18.44
2019-01-15T04:03:24.021Z,18.42
2019-01-15T04:05:24.024Z,18.41
2019-01-15T04:06:24.360Z,18.51
2019-01-15T04:07:24.134Z,18.44
2019-01-15T04:09:24.150Z,18.42
2019-01-15T04:10:24.180Z,18.47
2019-01-15T04:11:24.256Z,18.54
2019-01-15T04:12:24.288Z,18.44
2019-01-15T04:13:24.570Z,18.54
2019-01-15T04:14:24.299Z,18.44
2019-01-15T04:15:24.393Z,18.50
2019-01-15T04:16:24.356Z,18.50
2019-01-15T04:17:24.442Z,18.49
2019-01-15T04:18:24.473Z,18.50
2019-01-15T04:19:24.499Z,18.53
2019-01-15T04:20:24.804Z,18.53
2019-01-15T04:21:24.615Z,18.49
2019-01-15T04:22:24.902Z,18.57
2019-01-15T04:23:24.724Z,18.47
2019-01-15T04:24:24.655Z,18.62
2019-01-15T04:25:24.682Z,18.54
2019-01-15T04:26:24.765Z,18.49
2019-01-15T04:27:25.040Z,18.49
2019-01-15T04:29:24.752Z,18.60
2019-01-15T04:30:24.794Z,18.59
2019-01-15T04:31:24.812Z,18.59
2019-01-15T04:32:24.891Z,18.60
2019-01-15T04:33:24.924Z,18.60
2019-01-15T04:34:25.309Z,18.50
2019-01-15T04:35:25.082Z,18.64
2019-01-15T04:36:25.014Z,18.57
2019-01-15T04:37:24.990Z,18.62
2019-01-15T04:38:25.023Z,18.60
2019-01-15T04:39:25.113Z,18.60
2019-01-15T04:40:25.130Z,18.65
2019-01-15T04:41:25.410Z,18.62
2019-01-15T04:42:25.194Z,18.60
2019-01-15T04:43:25.227Z,18.56
2019-01-15T04:44:25.350Z,18.57
2019-01-15T04:45:25.238Z,18.62
2019-01-15T04:46:25.269Z,18.64
2019-01-15T04:47:25.348Z,18.59
2019-01-15T04:48:25.626Z,18.59
2019-01-15T04:49:25.439Z,18.53
2019-01-15T04:50:25.436Z,18.62
2019-01-15T04:51:25.465Z,18.59
2019-01-15T04:52:25.442Z,18.57
2019-01-15T04:53:25.524Z,18.53
2019-01-15T04:54:25.564Z,18.54
2019-01-15T04:55:25.863Z,18.50
2019-01-15T04:56:25.612Z,18.54
2019-01-15T04:57:25.604Z,18.51
2019-01-15T04:58:25.678Z,18.54
2019-01-15T04:59:25.706Z,18.50
2019-01-15T05:00:25.692Z,18.53
2019-01-15T05:01:25.769Z,18.53
2019-01-15T05:02:26.048Z,18.50
2019-01-15T05:03:25.832Z,18.51
2019-01-15T05:04:25.814Z,18.51
2019-01-15T05:05:25.832Z,18.60
2019-01-15T05:06:25.921Z,18.49
2019-01-15T05:07:25.903Z,18.50
2019-01-15T05:08:25.975Z,18.47
2019-01-15T05:09:26.269Z,18.47
2019-01-15T05:10:26.041Z,18.49
2019-01-15T05:11:26.072Z,18.50
2019-01-15T05:12:26.195Z,18.49
2019-01-15T05:13:27.459Z,18.53
2019-01-15T05:14:26.164Z,18.47
2019-01-15T05:15:26.220Z,18.42
2019-01-15T05:16:26.469Z,18.46
2019-01-15T05:17:26.249Z,18.53
2019-01-15T05:18:26.226Z,18.53
2019-01-15T05:19:26.310Z,18.53
2019-01-15T05:20:26.344Z,18.51
2019-01-15T05:21:26.332Z,18.42
2019-01-15T05:23:26.434Z,18.50
2019-01-15T05:24:26.772Z,18.42
2019-01-15T05:25:26.442Z,18.51
2019-01-15T05:27:26.518Z,18.56
2019-01-15T05:28:26.691Z,18.47
2019-01-15T05:29:26.617Z,18.44
2019-01-15T05:30:26.654Z,18.46
2019-01-15T05:31:26.920Z,18.42
2019-01-15T05:32:26.656Z,18.50
2019-01-15T05:33:26.739Z,18.47
2019-01-15T05:34:26.770Z,18.57
2019-01-15T05:35:26.795Z,18.46
2019-01-15T05:36:26.975Z,18.46
2019-01-15T05:37:26.858Z,18.47
2019-01-15T05:38:27.131Z,18.47
2019-01-15T05:39:26.918Z,18.47
2019-01-15T05:40:26.954Z,18.46
2019-01-15T05:41:26.924Z,18.50
2019-01-15T05:42:27.008Z,18.42
2019-01-15T05:43:27.031Z,18.41
2019-01-15T05:44:27.018Z,18.41
2019-01-15T05:45:27.555Z,18.50
2019-01-15T05:46:27.072Z,18.50
2019-01-15T05:47:27.194Z,18.42
2019-01-15T05:48:27.194Z,18.47
2019-01-15T05:49:27.162Z,18.50
2019-01-15T05:50:27.243Z,18.53
2019-01-15T05:51:27.292Z,18.47
2019-01-15T05:52:27.557Z,18.42
2019-01-15T05:54:27.320Z,18.44
2019-01-15T05:55:27.348Z,18.42
2019-01-15T05:56:27.432Z,18.47
2019-01-15T05:57:27.453Z,18.51
2019-01-15T05:58:27.757Z,18.41
2019-01-15T05:59:27.515Z,18.57
2019-01-15T06:00:27.541Z,18.47
2019-01-15T06:01:27.531Z,18.51
2019-01-15T06:02:27.552Z,18.49
2019-01-15T06:03:27.643Z,18.44
2019-01-15T06:04:28.006Z,18.47
2019-01-15T06:05:27.695Z,18.51
2019-01-15T06:06:27.693Z,18.50
2019-01-15T06:07:33.586Z,18.46
2019-01-15T06:08:27.734Z,18.53
2019-01-15T06:09:27.919Z,18.49
2019-01-15T06:10:28.097Z,18.50
2019-01-15T06:11:27.885Z,18.53
2019-01-15T06:12:27.913Z,18.56
2019-01-15T06:13:27.892Z,18.51
2019-01-15T06:14:27.971Z,18.50
2019-01-15T06:15:28.013Z,18.47
2019-01-15T06:16:27.974Z,18.59
2019-01-15T06:17:28.125Z,18.62
2019-01-15T06:18:28.189Z,18.62
2019-01-15T06:19:28.115Z,18.62
2019-01-15T06:20:28.154Z,18.59
2019-01-15T06:21:28.128Z,18.57
2019-01-15T06:22:28.211Z,18.64
2019-01-15T06:23:28.492Z,18.59
2019-01-15T06:24:28.225Z,18.62
2019-01-15T06:25:28.303Z,18.59
2019-01-15T06:27:28.358Z,18.57
2019-01-15T06:28:28.393Z,18.60
2019-01-15T06:29:28.374Z,18.56
2019-01-15T06:30:28.703Z,18.62
2019-01-15T06:31:28.479Z,18.59
2019-01-15T06:32:28.476Z,18.59
2019-01-15T06:33:28.542Z,18.59
2019-01-15T06:34:28.520Z,18.62
2019-01-15T06:35:28.604Z,18.59
2019-01-15T06:36:28.631Z,18.54
2019-01-15T06:37:28.911Z,18.62
2019-01-15T06:38:28.641Z,18.62
2019-01-15T06:39:28.730Z,18.62
2019-01-15T06:40:28.697Z,18.54
2019-01-15T06:41:28.786Z,18.60
2019-01-15T06:42:28.810Z,18.59
2019-01-15T06:43:28.818Z,18.64
2019-01-15T06:44:29.244Z,18.54
2019-01-15T06:45:28.909Z,18.59
2019-01-15T06:46:28.934Z,18.59
2019-01-15T06:48:28.943Z,18.62
2019-01-15T06:51:29.091Z,18.54
2019-01-15T06:52:29.121Z,18.59
2019-01-15T06:54:29.125Z,18.62
2019-01-15T06:55:29.225Z,18.62
2019-01-15T06:56:29.238Z,18.59
2019-01-15T06:57:29.222Z,18.65
2019-01-15T06:58:29.553Z,18.66
2019-01-15T06:59:29.276Z,18.57
2019-01-15T07:00:29.324Z,18.62
2019-01-15T07:01:29.385Z,18.57
2019-01-15T07:02:29.369Z,18.60
2019-01-15T07:03:29.446Z,18.64
2019-01-15T07:04:29.477Z,18.57
2019-01-15T07:05:29.771Z,18.59
2019-01-15T07:06:29.491Z,18.62
2019-01-15T07:07:29.568Z,18.60
2019-01-15T07:09:29.628Z,18.49
2019-01-15T07:10:29.607Z,18.54
2019-01-15T07:11:29.715Z,18.47
2019-01-15T07:12:29.722Z,18.54
2019-01-15T07:13:29.702Z,18.46
2019-01-15T07:14:29.783Z,18.53
2019-01-15T07:15:29.821Z,18.56
2019-01-15T07:16:29.793Z,18.49
2019-01-15T07:17:29.868Z,18.59
2019-01-15T07:18:30.152Z,18.47
2019-01-15T07:19:29.931Z,18.42
2019-01-15T07:20:29.964Z,18.56
2019-01-15T07:22:30.044Z,18.49
2019-01-15T07:24:30.029Z,18.46
2019-01-15T07:25:30.363Z,18.56
2019-01-15T07:26:30.095Z,18.50
2019-01-15T07:27:30.208Z,18.51
2019-01-15T07:28:30.215Z,18.46
2019-01-15T07:30:30.269Z,18.42
2019-01-15T07:31:30.541Z,18.49
2019-01-15T07:32:30.483Z,18.51
2019-01-15T07:33:30.310Z,18.53
2019-01-15T07:34:30.336Z,18.47
2019-01-15T07:35:30.417Z,18.47
2019-01-15T07:36:30.397Z,18.49
2019-01-15T07:37:30.781Z,18.41
2019-01-15T07:38:30.455Z,18.46
2019-01-15T07:39:30.534Z,18.44
2019-01-15T07:40:30.509Z,18.42
2019-01-15T07:41:30.545Z,18.46
2019-01-15T07:42:30.644Z,18.44
2019-01-15T07:43:30.658Z,18.51
2019-01-15T07:44:30.634Z,18.44
2019-01-15T07:45:30.660Z,18.44
2019-01-15T07:46:30.688Z,18.41
2019-01-15T07:47:30.776Z,18.47
2019-01-15T07:48:30.802Z,18.53
2019-01-15T07:49:30.782Z,18.50
2019-01-15T07:50:31.118Z,18.46
2019-01-15T07:51:30.892Z,18.42
2019-01-15T07:52:30.929Z,18.49
2019-01-15T07:53:30.957Z,18.42
2019-01-15T07:54:30.940Z,18.47
2019-01-15T07:55:31.013Z,18.41
2019-01-15T07:56:31.122Z,18.49
2019-01-15T07:57:31.373Z,18.44
2019-01-15T07:58:31.113Z,18.50
2019-01-15T07:59:31.135Z,18.47
2019-01-15T08:00:31.180Z,18.50
2019-01-15T08:01:31.199Z,18.42
2019-01-15T08:03:31.261Z,18.44
2019-01-15T08:04:31.543Z,18.49
2019-01-15T08:05:31.322Z,18.53
2019-01-15T08:06:31.294Z,18.51
2019-01-15T08:07:31.554Z,18.51
2019-01-15T08:08:31.415Z,18.51
2019-01-15T08:09:31.419Z,18.49
2019-01-15T08:10:31.487Z,18.49
2019-01-15T08:11:31.749Z,18.51
2019-01-15T08:12:31.554Z,18.42
2019-01-15T08:13:31.514Z,18.51
2019-01-15T08:14:31.554Z,18.59
2019-01-15T08:15:31.573Z,18.57
2019-01-15T08:16:31.651Z,18.53
2019-01-15T08:17:31.634Z,18.56
2019-01-15T08:18:31.684Z,18.47
2019-01-15T08:19:31.742Z,18.51
2019-01-15T08:20:31.781Z,18.57
2019-01-15T08:21:31.800Z,18.47
2019-01-15T08:22:31.787Z,18.50
2019-01-15T08:23:31.860Z,18.53
2019-01-15T08:24:32.441Z,18.42
2019-01-15T08:25:31.876Z,18.44
2019-01-15T08:26:31.952Z,18.47
2019-01-15T08:27:31.978Z,18.41
2019-01-15T08:28:31.958Z,18.46
2019-01-15T08:29:31.992Z,18.51
2019-01-15T08:30:32.316Z,18.42
2019-01-15T08:31:32.106Z,18.47
2019-01-15T08:32:32.076Z,18.47
2019-01-15T08:33:32.111Z,18.47
2019-01-15T08:34:32.136Z,18.46
2019-01-15T08:35:32.223Z,18.53
2019-01-15T08:36:32.501Z,18.46
2019-01-15T08:37:32.243Z,18.53
2019-01-15T08:38:32.264Z,18.49
2019-01-15T08:39:32.286Z,18.47
2019-01-15T08:41:32.352Z,18.46
2019-01-15T08:42:32.432Z,18.41
2019-01-15T08:44:32.441Z,18.46
2019-01-15T08:45:32.520Z,18.46
2019-01-15T08:46:32.550Z,18.42
2019-01-15T08:47:32.584Z,18.49
2019-01-15T08:48:32.561Z,18.46
2019-01-15T08:49:32.593Z,18.50
2019-01-15T08:50:32.621Z,18.41
2019-01-15T08:51:32.709Z,18.41
2019-01-15T08:53:32.759Z,18.42
2019-01-15T08:54:33.045Z,18.42
2019-01-15T08:55:32.831Z,18.46
2019-01-15T08:56:32.902Z,18.39
2019-01-15T08:58:32.915Z,18.29
2019-01-15T09:00:32.986Z,18.34
2019-01-15T09:01:33.306Z,18.41
2019-01-15T09:02:32.983Z,18.36
2019-01-15T09:03:33.066Z,18.36
2019-01-15T09:04:33.100Z,18.42
2019-01-15T09:05:33.077Z,18.42
2019-01-15T09:06:33.107Z,18.39
2019-01-15T09:07:33.436Z,18.38
2019-01-15T09:08:33.266Z,18.35
2019-01-15T09:09:33.203Z,18.36
2019-01-15T09:10:33.229Z,18.35
2019-01-15T09:11:33.312Z,18.31
2019-01-15T09:12:33.340Z,18.28
2019-01-15T09:13:33.662Z,18.31
2019-01-15T09:14:33.353Z,18.34
2019-01-15T09:15:33.431Z,18.31
2019-01-15T09:16:33.417Z,18.26
2019-01-15T09:17:33.482Z,18.31
2019-01-15T09:18:33.524Z,18.26
2019-01-15T09:19:33.804Z,18.25
2019-01-15T09:21:33.558Z,18.25
2019-01-15T09:22:33.594Z,18.42
2019-01-15T09:23:33.770Z,18.29
2019-01-15T09:24:33.694Z,18.32
2019-01-15T09:25:33.776Z,18.31
2019-01-15T09:26:34.011Z,18.28
2019-01-15T09:28:33.817Z,18.38
2019-01-15T09:29:33.801Z,18.29
2019-01-15T09:30:33.830Z,18.34
2019-01-15T09:31:33.912Z,18.38
2019-01-15T09:32:33.885Z,18.38
2019-01-15T09:33:34.342Z,18.32
2019-01-15T09:34:34.003Z,18.38
2019-01-15T09:35:34.030Z,18.32
2019-01-15T09:37:34.045Z,18.39
2019-01-15T09:38:34.148Z,18.41
2019-01-15T09:39:34.149Z,18.39
2019-01-15T09:40:34.233Z,18.42
2019-01-15T09:41:34.212Z,18.41
2019-01-15T09:42:34.238Z,18.41
2019-01-15T09:43:34.271Z,18.42
2019-01-15T09:44:34.450Z,18.38
2019-01-15T09:45:34.340Z,18.35
2019-01-15T09:46:34.608Z,18.38
2019-01-15T09:47:34.494Z,18.46
2019-01-15T09:48:34.453Z,18.39
2019-01-15T09:49:34.408Z,18.47
2019-01-15T09:50:34.484Z,18.44
2019-01-15T09:51:34.528Z,18.36
2019-01-15T09:52:34.492Z,18.49
2019-01-15T09:53:34.534Z,18.49
2019-01-15T09:54:34.552Z,18.47
2019-01-15T09:55:35.483Z,18.42
2019-01-15T09:56:34.662Z,18.47
2019-01-15T09:57:34.644Z,18.47
2019-01-15T09:58:34.685Z,18.49
2019-01-15T09:59:34.760Z,18.46
2019-01-15T10:00:34.737Z,18.47
2019-01-15T10:01:34.821Z,18.49
2019-01-15T10:02:34.857Z,18.53
2019-01-15T10:03:34.885Z,18.50
2019-01-15T10:04:34.854Z,18.51
2019-01-15T10:05:34.939Z,18.57
2019-01-15T10:06:34.970Z,18.50
2019-01-15T10:07:35.014Z,18.60
2019-01-15T10:08:35.026Z,18.59
2019-01-15T10:09:35.011Z,18.59
2019-01-15T10:10:35.052Z,18.57
2019-01-15T10:11:35.127Z,18.59
2019-01-15T10:12:35.155Z,18.60
2019-01-15T10:13:35.199Z,18.56
2019-01-15T10:14:41.208Z,18.57
2019-01-15T10:15:35.194Z,18.59
2019-01-15T10:16:35.275Z,18.64
2019-01-15T10:17:35.257Z,18.65
2019-01-15T10:19:35.314Z,18.64
2019-01-15T10:20:35.401Z,18.66
2019-01-15T10:21:35.374Z,18.56
2019-01-15T10:22:35.407Z,18.57
2019-01-15T10:23:35.885Z,18.66
2019-01-15T10:24:35.525Z,18.68
2019-01-15T10:25:35.513Z,18.59
2019-01-15T10:26:35.528Z,18.68
2019-01-15T10:27:35.609Z,18.66
2019-01-15T10:28:35.641Z,18.57
2019-01-15T10:29:35.663Z,18.60
2019-01-15T10:30:35.965Z,18.66
2019-01-15T10:31:35.683Z,18.65
2019-01-15T10:32:35.763Z,18.65
2019-01-15T10:33:35.793Z,18.60
2019-01-15T10:34:35.779Z,18.68
2019-01-15T10:35:35.851Z,18.65
2019-01-15T10:36:35.834Z,18.68
2019-01-15T10:37:36.171Z,18.64
2019-01-15T10:38:35.991Z,18.68
2019-01-15T10:39:35.973Z,18.65
2019-01-15T10:40:36.003Z,18.65
2019-01-15T10:41:35.983Z,18.64
2019-01-15T10:42:36.070Z,18.66
2019-01-15T10:43:36.102Z,18.64
2019-01-15T10:44:36.375Z,18.68
2019-01-15T10:45:36.106Z,18.65
2019-01-15T10:46:36.187Z,18.69
2019-01-15T10:47:36.170Z,18.66
2019-01-15T10:48:36.211Z,18.64
2019-01-15T10:49:36.283Z,18.65
2019-01-15T10:50:36.311Z,18.66
2019-01-15T10:51:36.599Z,18.66
2019-01-15T10:52:36.325Z,18.74
2019-01-15T10:53:36.352Z,18.72
2019-01-15T10:55:36.459Z,18.71
2019-01-15T10:56:36.494Z,18.60
2019-01-15T10:57:36.479Z,18.68
2019-01-15T10:58:36.805Z,18.69
2019-01-15T10:59:36.579Z,18.69
2019-01-15T11:01:36.648Z,18.78
2019-01-15T11:02:36.672Z,18.68
2019-01-15T11:03:36.744Z,18.75
2019-01-15T11:04:36.684Z,18.75
2019-01-15T11:05:36.785Z,18.65
2019-01-15T11:06:36.808Z,18.69
2019-01-15T11:07:36.841Z,18.76
2019-01-15T11:08:36.816Z,18.74
2019-01-15T11:09:36.836Z,18.72
2019-01-15T11:10:36.872Z,18.74
2019-01-15T11:11:37.199Z,18.74
2019-01-15T11:13:36.967Z,18.76
2019-01-15T11:14:37.003Z,18.74
2019-01-15T11:15:43.153Z,18.74
2019-01-15T11:16:37.107Z,18.76
2019-01-15T11:17:37.443Z,18.74
2019-01-15T11:18:37.178Z,18.74
2019-01-15T11:19:37.146Z,18.76
2019-01-15T11:21:37.203Z,18.72
2019-01-15T11:22:37.235Z,18.74
2019-01-15T11:24:37.651Z,18.72
2019-01-15T11:25:37.331Z,18.82
2019-01-15T11:26:37.416Z,18.72
2019-01-15T11:27:37.445Z,18.75
2019-01-15T11:28:37.420Z,18.68
2019-01-15T11:29:37.504Z,18.76
2019-01-15T11:30:37.489Z,18.74
2019-01-15T11:31:37.562Z,18.75
2019-01-15T11:33:37.623Z,18.74
2019-01-15T11:34:37.615Z,18.76
2019-01-15T11:35:37.690Z,18.82
2019-01-15T11:36:37.672Z,18.75
2019-01-15T11:37:37.698Z,18.74
2019-01-15T11:39:37.756Z,18.79
2019-01-15T11:40:37.855Z,18.75
2019-01-15T11:41:37.823Z,18.75
2019-01-15T11:43:39.031Z,18.78
2019-01-15T11:44:37.964Z,18.69
2019-01-15T11:45:37.943Z,18.76
2019-01-15T11:46:37.975Z,18.71
2019-01-15T11:47:38.006Z,18.82
2019-01-15T11:48:38.329Z,18.83
2019-01-15T11:49:38.121Z,18.76
2019-01-15T11:50:38.093Z,18.75
2019-01-15T11:51:38.174Z,18.78
2019-01-15T11:52:38.208Z,18.78
2019-01-15T11:53:38.190Z,18.78
2019-01-15T11:54:38.351Z,18.79
2019-01-15T11:55:38.309Z,18.74
2019-01-15T11:56:38.301Z,18.83
2019-01-15T11:57:38.312Z,18.83
2019-01-15T11:58:38.336Z,18.86
2019-01-15T11:59:38.425Z,18.75
2019-01-15T12:00:38.714Z,18.90
2019-01-15T12:01:38.429Z,18.82
2019-01-15T12:02:38.476Z,18.83
2019-01-15T12:03:38.499Z,18.78
2019-01-15T12:04:38.583Z,18.87
2019-01-15T12:05:38.611Z,18.82
2019-01-15T12:06:38.889Z,18.90
2019-01-15T12:07:38.667Z,18.83
2019-01-15T12:08:38.645Z,18.82
2019-01-15T12:09:38.676Z,18.84
2019-01-15T12:10:38.758Z,18.87
2019-01-15T12:11:38.795Z,18.93
2019-01-15T12:12:38.770Z,18.89
2019-01-15T12:13:39.121Z,18.89
2019-01-15T12:14:38.832Z,18.87
2019-01-15T12:15:38.921Z,18.90
2019-01-15T12:16:38.945Z,18.84
2019-01-15T12:17:38.948Z,18.83
2019-01-15T12:18:39.024Z,18.83
2019-01-15T12:19:39.049Z,18.87
2019-01-15T12:20:39.319Z,18.84
2019-01-15T12:22:39.141Z,18.87
2019-01-15T12:23:39.158Z,18.82
2019-01-15T12:24:39.143Z,18.84
2019-01-15T12:25:39.166Z,18.89
2019-01-15T12:26:39.201Z,18.79
2019-01-15T12:27:39.283Z,18.86
2019-01-15T12:28:39.316Z,18.93
2019-01-15T12:29:39.291Z,18.78
2019-01-15T12:30:39.378Z,18.86
2019-01-15T12:31:39.407Z,18.89
2019-01-15T12:32:39.389Z,18.87
2019-01-15T12:33:39.414Z,18.89
2019-01-15T12:34:39.452Z,18.79
2019-01-15T12:35:39.526Z,18.87
2019-01-15T12:37:39.582Z,18.90
2019-01-15T12:38:39.574Z,18.90
2019-01-15T12:39:39.596Z,18.84
2019-01-15T12:40:39.687Z,18.90
2019-01-15T12:41:39.709Z,18.84
2019-01-15T12:42:39.689Z,18.93
2019-01-15T12:43:39.774Z,18.84
2019-01-15T12:44:39.786Z,18.75
2019-01-15T12:45:40.093Z,18.75
2019-01-15T12:46:39.863Z,18.83
2019-01-15T12:47:39.894Z,18.83
2019-01-15T12:49:39.909Z,18.79
2019-01-15T12:50:39.940Z,18.79
2019-01-15T12:51:40.321Z,18.84
2019-01-15T12:52:40.052Z,18.83
2019-01-15T12:53:40.037Z,18.79
2019-01-15T12:54:40.062Z,18.74
2019-01-15T12:55:40.144Z,18.82
2019-01-15T12:56:40.171Z,18.78
2019-01-15T12:57:40.165Z,18.75
2019-01-15T12:58:40.234Z,18.74
2019-01-15T12:59:40.259Z,18.78
2019-01-15T13:00:40.251Z,18.69
2019-01-15T13:01:40.277Z,18.69
2019-01-15T13:02:40.308Z,18.74
2019-01-15T13:03:40.430Z,18.71
2019-01-15T13:04:40.420Z,18.72
2019-01-15T13:05:40.392Z,18.68
2019-01-15T13:06:40.432Z,18.71
2019-01-15T13:07:40.462Z,18.68
2019-01-15T13:08:40.542Z,18.60
2019-01-15T13:09:40.823Z,18.62
2019-01-15T13:10:40.543Z,18.72
2019-01-15T13:11:40.636Z,18.68
2019-01-15T13:12:40.612Z,18.66
2019-01-15T13:13:40.695Z,18.68
2019-01-15T13:14:40.666Z,18.60
2019-01-15T13:15:40.754Z,18.64
2019-01-15T13:17:41.076Z,18.69
2019-01-15T13:18:40.840Z,18.64
2019-01-15T13:19:40.820Z,18.53
2019-01-15T13:20:40.902Z,18.56
2019-01-15T13:21:40.895Z,18.57
2019-01-15T13:22:40.968Z,18.65
2019-01-15T13:23:40.997Z,18.62
2019-01-15T13:24:40.978Z,18.62
2019-01-15T13:25:41.017Z,18.54
2019-01-15T13:26:41.037Z,18.62
2019-01-15T13:27:41.071Z,18.54
2019-01-15T13:28:41.150Z,18.57
2019-01-15T13:29:41.201Z,18.59
2019-01-15T13:30:41.158Z,18.62
2019-01-15T13:31:41.254Z,18.59
2019-01-15T13:32:41.224Z,18.62
2019-01-15T13:33:41.297Z,18.56
2019-01-15T13:34:41.332Z,18.56
2019-01-15T13:35:41.394Z,18.59
2019-01-15T13:36:41.699Z,18.56
2019-01-15T13:37:41.372Z,18.57
2019-01-15T13:38:41.405Z,18.56